sensor_id;sensor_type;location;lat;lon;timestamp;P1;P2;P0
78842;PMS5003;70542;53.774;-0.352;2024-01-30T00:03:43;29;29;
78842;PMS5003;70542;53.774;-0.352;2024-01-30T00:09:46;31;21;
78842;PMS5003;70542;53.774;-0.352;2024-01-30T00:16:03;46;42;
78842;PMS5003;70542;53.774;-0.352;2024-01-30T00:22:13;34;32;
78842;PMS5003;70542;53.774;-0.352;2024-01-30T00:28:22;35;35;
78842;PMS5003;70542;53.774;-0.352;2024-01-30T00:34:30;42;38;
78842;PMS5003;70542;53.774;-0.352;2024-01-30T00:40:31;33;33;
78842;PMS5003;70542;53.774;-0.352;2024-01-30T00:46:32;25;25;
78842;PMS5003;70542;53.774;-0.352;2024-01-30T00:52:46;51;33;
78842;PMS5003;70542;53.774;-0.352;2024-01-30T00:59:02;43;39;
78842;PMS5003;70542;53.774;-0.352;2024-01-30T01:05:22;37;37;
78842;PMS5003;70542;53.774;-0.352;2024-01-30T01:11:23;33;30;
78842;PMS5003;70542;53.774;-0.352;2024-01-30T01:17:20;34;31;
78842;PMS5003;70542;53.774;-0.352;2024-01-30T01:23:29;41;41;
78842;PMS5003;70542;53.774;-0.352;2024-01-30T01:29:33;36;36;
78842;PMS5003;70542;53.774;-0.352;2024-01-30T01:35:30;33;29;
78842;PMS5003;70542;53.774;-0.352;2024-01-30T01:41:43;32;29;
78842;PMS5003;70542;53.774;-0.352;2024-01-30T01:47:43;33;33;
78842;PMS5003;70542;53.774;-0.352;2024-01-30T01:53:59;38;35;
78842;PMS5003;70542;53.774;-0.352;2024-01-30T02:00:07;46;44;
78842;PMS5003;70542;53.774;-0.352;2024-01-30T02:06:05;40;38;
78842;PMS5003;70542;53.774;-0.352;2024-01-30T02:12:11;44;44;
78842;PMS5003;70542;53.774;-0.352;2024-01-30T02:18:29;29;29;
78842;PMS5003;70542;53.774;-0.352;2024-01-30T02:24:08;31;31;
78842;PMS5003;70542;53.774;-0.352;2024-01-30T02:30:05;36;36;
78842;PMS5003;70542;53.774;-0.352;2024-01-30T02:36:15;38;38;
78842;PMS5003;70542;53.774;-0.352;2024-01-30T02:42:31;33;31;
78842;PMS5003;70542;53.774;-0.352;2024-01-30T02:48:40;51;51;
78842;PMS5003;70542;53.774;-0.352;2024-01-30T02:54:49;33;33;
78842;PMS5003;70542;53.774;-0.352;2024-01-30T03:00:49;34;34;
78842;PMS5003;70542;53.774;-0.352;2024-01-30T03:06:46;35;34;
78842;PMS5003;70542;53.774;-0.352;2024-01-30T03:12:59;39;39;
78842;PMS5003;70542;53.774;-0.352;2024-01-30T03:19:08;38;38;
78842;PMS5003;70542;53.774;-0.352;2024-01-30T03:25:15;44;41;
78842;PMS5003;70542;53.774;-0.352;2024-01-30T03:31:20;23;20;
78842;PMS5003;70542;53.774;-0.352;2024-01-30T03:37:22;25;25;
78842;PMS5003;70542;53.774;-0.352;2024-01-30T03:43:19;38;35;
78842;PMS5003;70542;53.774;-0.352;2024-01-30T03:49:31;35;31;
78842;PMS5003;70542;53.774;-0.352;2024-01-30T03:55:43;29;29;
78842;PMS5003;70542;53.774;-0.352;2024-01-30T04:01:57;27;27;
78842;PMS5003;70542;53.774;-0.352;2024-01-30T04:08:11;43;40;
78842;PMS5003;70542;53.774;-0.352;2024-01-30T04:14:17;35;35;
78842;PMS5003;70542;53.774;-0.352;2024-01-30T04:20:14;47;47;
78842;PMS5003;70542;53.774;-0.352;2024-01-30T04:26:23;42;34;
78842;PMS5003;70542;53.774;-0.352;2024-01-30T04:32:24;44;42;
78842;PMS5003;70542;53.774;-0.352;2024-01-30T04:38:57;34;31;
78842;PMS5003;70542;53.774;-0.352;2024-01-30T04:45:09;21;17;
78842;PMS5003;70542;53.774;-0.352;2024-01-30T04:51:25;18;11;
78842;PMS5003;70542;53.774;-0.352;2024-01-30T04:57:22;10;10;
78842;PMS5003;70542;53.774;-0.352;2024-01-30T05:03:25;13;10;
78842;PMS5003;70542;53.774;-0.352;2024-01-30T05:09:30;11;11;
78842;PMS5003;70542;53.774;-0.352;2024-01-30T05:15:35;6;6;
78842;PMS5003;70542;53.774;-0.352;2024-01-30T05:21:54;7;7;
78842;PMS5003;70542;53.774;-0.352;2024-01-30T05:28:16;4;4;
78842;PMS5003;70542;53.774;-0.352;2024-01-30T05:34:12;9;9;
78842;PMS5003;70542;53.774;-0.352;2024-01-30T05:40:28;3;3;
78842;PMS5003;70542;53.774;-0.352;2024-01-30T05:46:24;7;7;
78842;PMS5003;70542;53.774;-0.352;2024-01-30T05:52:33;6;6;
78842;PMS5003;70542;53.774;-0.352;2024-01-30T05:58:32;7;7;
78842;PMS5003;70542;53.774;-0.352;2024-01-30T06:04:40;10;10;
78842;PMS5003;70542;53.774;-0.352;2024-01-30T06:10:53;7;7;
78842;PMS5003;70542;53.774;-0.352;2024-01-30T06:17:13;3;3;
78842;PMS5003;70542;53.774;-0.352;2024-01-30T06:23:25;4;4;
78842;PMS5003;70542;53.774;-0.352;2024-01-30T06:29:26;7;7;
78842;PMS5003;70542;53.774;-0.352;2024-01-30T06:35:13;3;3;
78842;PMS5003;70542;53.774;-0.352;2024-01-30T06:41:16;9;9;
78842;PMS5003;70542;53.774;-0.352;2024-01-30T06:47:19;5;5;
78842;PMS5003;70542;53.774;-0.352;2024-01-30T06:53:21;0;0;
78842;PMS5003;70542;53.774;-0.352;2024-01-30T06:59:21;0;0;
78842;PMS5003;70542;53.774;-0.352;2024-01-30T07:05:40;1;1;
78842;PMS5003;70542;53.774;-0.352;2024-01-30T07:11:58;0;0;
78842;PMS5003;70542;53.774;-0.352;2024-01-30T07:18:15;0;0;
78842;PMS5003;70542;53.774;-0.352;2024-01-30T07:24:28;0;0;
78842;PMS5003;70542;53.774;-0.352;2024-01-30T07:30:50;0;0;
78842;PMS5003;70542;53.774;-0.352;2024-01-30T07:37:05;0;0;
78842;PMS5003;70542;53.774;-0.352;2024-01-30T07:43:34;0;0;
78842;PMS5003;70542;53.774;-0.352;2024-01-30T07:49:38;0;0;
78842;PMS5003;70542;53.774;-0.352;2024-01-30T07:55:36;0;0;
78842;PMS5003;70542;53.774;-0.352;2024-01-30T08:01:36;1;1;
78842;PMS5003;70542;53.774;-0.352;2024-01-30T08:07:34;0;0;
78842;PMS5003;70542;53.774;-0.352;2024-01-30T08:13:49;0;0;
78842;PMS5003;70542;53.774;-0.352;2024-01-30T08:20:01;2;2;
78842;PMS5003;70542;53.774;-0.352;2024-01-30T08:26:24;0;0;
78842;PMS5003;70542;53.774;-0.352;2024-01-30T08:33:05;0;0;
78842;PMS5003;70542;53.774;-0.352;2024-01-30T08:39:05;1;1;
78842;PMS5003;70542;53.774;-0.352;2024-01-30T08:45:05;0;0;
78842;PMS5003;70542;53.774;-0.352;2024-01-30T08:51:34;0;0;
78842;PMS5003;70542;53.774;-0.352;2024-01-30T08:57:42;0;0;
78842;PMS5003;70542;53.774;-0.352;2024-01-30T09:03:38;0;0;
78842;PMS5003;70542;53.774;-0.352;2024-01-30T09:09:50;1;1;
78842;PMS5003;70542;53.774;-0.352;2024-01-30T09:15:58;0;0;
78842;PMS5003;70542;53.774;-0.352;2024-01-30T09:21:54;0;0;
78842;PMS5003;70542;53.774;-0.352;2024-01-30T09:27:51;0;0;
78842;PMS5003;70542;53.774;-0.352;2024-01-30T09:33:59;0;0;
78842;PMS5003;70542;53.774;-0.352;2024-01-30T09:40:08;0;0;
78842;PMS5003;70542;53.774;-0.352;2024-01-30T09:46:05;0;0;
78842;PMS5003;70542;53.774;-0.352;2024-01-30T09:52:04;0;0;
78842;PMS5003;70542;53.774;-0.352;2024-01-30T09:58:02;1;1;
78842;PMS5003;70542;53.774;-0.352;2024-01-30T10:04:11;1;1;
78842;PMS5003;70542;53.774;-0.352;2024-01-30T10:10:10;4;4;
78842;PMS5003;70542;53.774;-0.352;2024-01-30T10:16:19;2;2;
78842;PMS5003;70542;53.774;-0.352;2024-01-30T10:22:19;0;0;
78842;PMS5003;70542;53.774;-0.352;2024-01-30T10:28:16;0;0;
78842;PMS5003;70542;53.774;-0.352;2024-01-30T10:34:29;0;0;
78842;PMS5003;70542;53.774;-0.352;2024-01-30T10:40:30;0;0;
78842;PMS5003;70542;53.774;-0.352;2024-01-30T10:46:44;0;0;
78842;PMS5003;70542;53.774;-0.352;2024-01-30T10:53:03;1;1;
78842;PMS5003;70542;53.774;-0.352;2024-01-30T10:59:08;5;2;
78842;PMS5003;70542;53.774;-0.352;2024-01-30T11:05:00;0;0;
78842;PMS5003;70542;53.774;-0.352;2024-01-30T11:10:45;1;1;
78842;PMS5003;70542;53.774;-0.352;2024-01-30T11:16:48;0;0;
78842;PMS5003;70542;53.774;-0.352;2024-01-30T11:22:58;0;0;
78842;PMS5003;70542;53.774;-0.352;2024-01-30T11:28:55;1;1;
78842;PMS5003;70542;53.774;-0.352;2024-01-30T11:35:03;3;3;
78842;PMS5003;70542;53.774;-0.352;2024-01-30T11:41:15;0;0;
78842;PMS5003;70542;53.774;-0.352;2024-01-30T11:47:24;1;1;
78842;PMS5003;70542;53.774;-0.352;2024-01-30T11:53:20;1;1;
78842;PMS5003;70542;53.774;-0.352;2024-01-30T11:59:23;1;1;
78842;PMS5003;70542;53.774;-0.352;2024-01-30T12:05:24;0;0;
78842;PMS5003;70542;53.774;-0.352;2024-01-30T12:18:05;1;1;
78842;PMS5003;70542;53.774;-0.352;2024-01-30T12:24:13;3;3;
78842;PMS5003;70542;53.774;-0.352;2024-01-30T12:30:11;4;4;
78842;PMS5003;70542;53.774;-0.352;2024-01-30T12:36:16;1;1;
78842;PMS5003;70542;53.774;-0.352;2024-01-30T12:42:13;5;5;
78842;PMS5003;70542;53.774;-0.352;2024-01-30T12:47:56;2;2;
78842;PMS5003;70542;53.774;-0.352;2024-01-30T12:54:05;3;3;
78842;PMS5003;70542;53.774;-0.352;2024-01-30T13:00:02;3;3;
78842;PMS5003;70542;53.774;-0.352;2024-01-30T13:06:11;0;0;
78842;PMS5003;70542;53.774;-0.352;2024-01-30T13:11:49;2;2;
78842;PMS5003;70542;53.774;-0.352;2024-01-30T13:18:01;2;2;
78842;PMS5003;70542;53.774;-0.352;2024-01-30T13:23:48;9;9;
78842;PMS5003;70542;53.774;-0.352;2024-01-30T13:29:56;26;24;
78842;PMS5003;70542;53.774;-0.352;2024-01-30T13:36:22;15;15;
78842;PMS5003;70542;53.774;-0.352;2024-01-30T13:42:34;11;11;
78842;PMS5003;70542;53.774;-0.352;2024-01-30T13:48:30;11;11;
78842;PMS5003;70542;53.774;-0.352;2024-01-30T13:54:40;12;12;
78842;PMS5003;70542;53.774;-0.352;2024-01-30T14:01:02;6;6;
78842;PMS5003;70542;53.774;-0.352;2024-01-30T14:07:03;2;2;
78842;PMS5003;70542;53.774;-0.352;2024-01-30T14:13:03;0;0;
78842;PMS5003;70542;53.774;-0.352;2024-01-30T14:19:11;0;0;
78842;PMS5003;70542;53.774;-0.352;2024-01-30T14:25:31;0;0;
78842;PMS5003;70542;53.774;-0.352;2024-01-30T14:31:28;1;1;
78842;PMS5003;70542;53.774;-0.352;2024-01-30T14:37:48;0;0;
78842;PMS5003;70542;53.774;-0.352;2024-01-30T14:43:56;0;0;
78842;PMS5003;70542;53.774;-0.352;2024-01-30T14:50:09;0;0;
78842;PMS5003;70542;53.774;-0.352;2024-01-30T14:56:05;2;2;
78842;PMS5003;70542;53.774;-0.352;2024-01-30T15:02:10;6;6;
78842;PMS5003;70542;53.774;-0.352;2024-01-30T15:08:11;10;10;
78842;PMS5003;70542;53.774;-0.352;2024-01-30T15:14:19;5;5;
78842;PMS5003;70542;53.774;-0.352;2024-01-30T15:20:16;6;6;
78842;PMS5003;70542;53.774;-0.352;2024-01-30T15:26:28;4;4;
78842;PMS5003;70542;53.774;-0.352;2024-01-30T15:32:24;0;0;
78842;PMS5003;70542;53.774;-0.352;2024-01-30T15:38:37;2;2;
78842;PMS5003;70542;53.774;-0.352;2024-01-30T15:44:56;3;3;
78842;PMS5003;70542;53.774;-0.352;2024-01-30T15:51:12;3;3;
78842;PMS5003;70542;53.774;-0.352;2024-01-30T15:57:12;0;0;
78842;PMS5003;70542;53.774;-0.352;2024-01-30T16:03:16;0;0;
78842;PMS5003;70542;53.774;-0.352;2024-01-30T16:09:16;2;2;
78842;PMS5003;70542;53.774;-0.352;2024-01-30T16:15:24;1;1;
78842;PMS5003;70542;53.774;-0.352;2024-01-30T16:21:21;1;1;
78842;PMS5003;70542;53.774;-0.352;2024-01-30T16:27:29;2;2;
78842;PMS5003;70542;53.774;-0.352;2024-01-30T16:33:37;4;4;
78842;PMS5003;70542;53.774;-0.352;2024-01-30T16:39:44;4;4;
78842;PMS5003;70542;53.774;-0.352;2024-01-30T16:46:10;8;8;
78842;PMS5003;70542;53.774;-0.352;2024-01-30T16:52:06;9;6;
78842;PMS5003;70542;53.774;-0.352;2024-01-30T16:58:14;7;7;
78842;PMS5003;70542;53.774;-0.352;2024-01-30T17:04:21;9;9;
78842;PMS5003;70542;53.774;-0.352;2024-01-30T17:10:17;14;14;
78842;PMS5003;70542;53.774;-0.352;2024-01-30T17:16:14;22;13;
78842;PMS5003;70542;53.774;-0.352;2024-01-30T17:22:10;6;6;
78842;PMS5003;70542;53.774;-0.352;2024-01-30T17:28:06;17;14;
78842;PMS5003;70542;53.774;-0.352;2024-01-30T17:34:18;13;13;
78842;PMS5003;70542;53.774;-0.352;2024-01-30T17:40:15;16;13;
78842;PMS5003;70542;53.774;-0.352;2024-01-30T17:46:22;15;15;
78842;PMS5003;70542;53.774;-0.352;2024-01-30T17:52:30;13;9;
78842;PMS5003;70542;53.774;-0.352;2024-01-30T17:58:26;15;15;
78842;PMS5003;70542;53.774;-0.352;2024-01-30T18:04:23;28;25;
78842;PMS5003;70542;53.774;-0.352;2024-01-30T18:10:20;7;7;
78842;PMS5003;70542;53.774;-0.352;2024-01-30T18:16:41;21;21;
78842;PMS5003;70542;53.774;-0.352;2024-01-30T18:22:56;9;9;
78842;PMS5003;70542;53.774;-0.352;2024-01-30T18:29:07;9;9;
78842;PMS5003;70542;53.774;-0.352;2024-01-30T18:35:03;17;17;
78842;PMS5003;70542;53.774;-0.352;2024-01-30T18:41:13;22;19;
78842;PMS5003;70542;53.774;-0.352;2024-01-30T18:47:22;21;21;
78842;PMS5003;70542;53.774;-0.352;2024-01-30T18:53:18;20;17;
78842;PMS5003;70542;53.774;-0.352;2024-01-30T18:59:25;19;19;
78842;PMS5003;70542;53.774;-0.352;2024-01-30T19:05:22;11;11;
78842;PMS5003;70542;53.774;-0.352;2024-01-30T19:11:30;22;22;
78842;PMS5003;70542;53.774;-0.352;2024-01-30T19:17:39;13;13;
78842;PMS5003;70542;53.774;-0.352;2024-01-30T19:23:35;22;22;
78842;PMS5003;70542;53.774;-0.352;2024-01-30T19:29:43;26;23;
78842;PMS5003;70542;53.774;-0.352;2024-01-30T19:35:40;34;34;
78842;PMS5003;70542;53.774;-0.352;2024-01-30T19:41:36;34;34;
78842;PMS5003;70542;53.774;-0.352;2024-01-30T19:47:33;39;39;
78842;PMS5003;70542;53.774;-0.352;2024-01-30T19:53:29;41;38;
78842;PMS5003;70542;53.774;-0.352;2024-01-30T19:59:26;45;41;
78842;PMS5003;70542;53.774;-0.352;2024-01-30T20:05:22;35;35;
78842;PMS5003;70542;53.774;-0.352;2024-01-30T20:11:25;57;51;
78842;PMS5003;70542;53.774;-0.352;2024-01-30T20:17:21;37;37;
78842;PMS5003;70542;53.774;-0.352;2024-01-30T20:23:17;26;26;
78842;PMS5003;70542;53.774;-0.352;2024-01-30T20:29:14;18;14;
78842;PMS5003;70542;53.774;-0.352;2024-01-30T20:35:10;23;23;
78842;PMS5003;70542;53.774;-0.352;2024-01-30T20:41:18;32;25;
78842;PMS5003;70542;53.774;-0.352;2024-01-30T20:47:31;43;43;
78842;PMS5003;70542;53.774;-0.352;2024-01-30T20:53:10;29;29;
78842;PMS5003;70542;53.774;-0.352;2024-01-30T20:59:18;22;22;
78842;PMS5003;70542;53.774;-0.352;2024-01-30T21:05:15;19;19;
78842;PMS5003;70542;53.774;-0.352;2024-01-30T21:11:15;18;15;
78842;PMS5003;70542;53.774;-0.352;2024-01-30T21:17:11;20;20;
78842;PMS5003;70542;53.774;-0.352;2024-01-30T21:23:07;15;15;
78842;PMS5003;70542;53.774;-0.352;2024-01-30T21:29:03;16;13;
78842;PMS5003;70542;53.774;-0.352;2024-01-30T21:34:59;19;19;
78842;PMS5003;70542;53.774;-0.352;2024-01-30T21:40:56;17;17;
78842;PMS5003;70542;53.774;-0.352;2024-01-30T21:47:10;20;20;
78842;PMS5003;70542;53.774;-0.352;2024-01-30T21:52:49;20;16;
78842;PMS5003;70542;53.774;-0.352;2024-01-30T21:58:59;22;20;
78842;PMS5003;70542;53.774;-0.352;2024-01-30T22:04:55;22;19;
78842;PMS5003;70542;53.774;-0.352;2024-01-30T22:10:51;18;18;
78842;PMS5003;70542;53.774;-0.352;2024-01-30T22:16:59;21;18;
78842;PMS5003;70542;53.774;-0.352;2024-01-30T22:22:55;27;27;
78842;PMS5003;70542;53.774;-0.352;2024-01-30T22:28:34;14;14;
78842;PMS5003;70542;53.774;-0.352;2024-01-30T22:34:42;16;16;
78842;PMS5003;70542;53.774;-0.352;2024-01-30T22:40:51;24;24;
78842;PMS5003;70542;53.774;-0.352;2024-01-30T22:46:47;17;17;
78842;PMS5003;70542;53.774;-0.352;2024-01-30T22:52:56;16;16;
78842;PMS5003;70542;53.774;-0.352;2024-01-30T22:58:40;21;19;
78842;PMS5003;70542;53.774;-0.352;2024-01-30T23:04:52;21;21;
78842;PMS5003;70542;53.774;-0.352;2024-01-30T23:11:00;20;20;
78842;PMS5003;70542;53.774;-0.352;2024-01-30T23:17:01;13;13;
78842;PMS5003;70542;53.774;-0.352;2024-01-30T23:22:57;21;19;
78842;PMS5003;70542;53.774;-0.352;2024-01-30T23:28:53;20;20;
78842;PMS5003;70542;53.774;-0.352;2024-01-30T23:34:49;11;11;
78842;PMS5003;70542;53.774;-0.352;2024-01-30T23:40:46;20;18;
78842;PMS5003;70542;53.774;-0.352;2024-01-30T23:46:42;13;13;
78842;PMS5003;70542;53.774;-0.352;2024-01-30T23:52:21;14;14;
78842;PMS5003;70542;53.774;-0.352;2024-01-30T23:58:17;17;17;
